Time;durP1;ratioP1;P1;durP2;ratioP2;P2;SDS_P1;SDS_P2;PMS_P1;PMS_P2;Temp;Humidity;BMP_temperature;BMP_pressure;BME280_temperature;BME280_humidity;BME280_pressure;Samples;Min_cycle;Max_cycle;Signal;HPM_P1;HPM_P2
2023/08/09 00:02:02;;;;;;;10.18;9.15;;;15.80;99.90;;;;;;5032285;28;20115;-82
2023/08/09 00:04:28;;;;;;;9.30;8.50;;;15.80;99.90;;;;;;5033396;28;20076;-81
2023/08/09 00:06:53;;;;;;;9.90;8.93;;;15.80;99.90;;;;;;5032877;28;20017;-81
2023/08/09 00:09:21;;;;;;;11.27;9.95;;;15.80;99.90;;;;;;5032184;28;20025;-81
2023/08/09 00:11:47;;;;;;;10.73;9.75;;;15.70;99.90;;;;;;5032583;28;20485;-82
2023/08/09 00:14:13;;;;;;;10.30;9.18;;;15.70;99.90;;;;;;5033070;28;20034;-81
2023/08/09 00:16:38;;;;;;;9.85;9.05;;;15.70;99.90;;;;;;5032110;28;20132;-81
2023/08/09 00:19:05;;;;;;;9.38;8.65;;;15.80;99.90;;;;;;5032683;28;20109;-82
2023/08/09 00:21:31;;;;;;;11.48;9.43;;;15.70;99.90;;;;;;5032553;28;20182;-82
2023/08/09 00:23:57;;;;;;;10.82;9.80;;;15.70;99.90;;;;;;5031954;28;20060;-82
2023/08/09 00:26:23;;;;;;;9.25;8.45;;;15.70;99.90;;;;;;5032997;28;20037;-82
2023/08/09 00:28:48;;;;;;;10.80;9.90;;;15.70;99.90;;;;;;5032521;28;20354;-82
2023/08/09 00:31:14;;;;;;;11.20;10.20;;;15.70;99.90;;;;;;5032045;28;20407;-81
2023/08/09 00:33:39;;;;;;;11.63;10.55;;;15.70;99.90;;;;;;5032247;28;20049;-82
2023/08/09 00:36:05;;;;;;;10.93;9.93;;;15.70;99.90;;;;;;5032377;28;20441;-82
2023/08/09 00:38:30;;;;;;;12.77;11.02;;;15.70;99.90;;;;;;5031346;28;20084;-82
2023/08/09 00:40:56;;;;;;;13.10;11.75;;;15.60;99.90;;;;;;5032321;28;20124;-82
2023/08/09 00:43:22;;;;;;;12.18;10.98;;;15.60;99.90;;;;;;5032600;28;20444;-81
2023/08/09 00:45:48;;;;;;;11.65;10.57;;;15.50;99.90;;;;;;5031521;28;20021;-81
2023/08/09 00:48:14;;;;;;;12.65;11.35;;;15.50;99.90;;;;;;5032417;28;20025;-82
2023/08/09 00:50:40;;;;;;;12.10;10.90;;;15.50;99.90;;;;;;5031303;28;20079;-82
2023/08/09 00:53:06;;;;;;;11.77;10.73;;;15.60;99.90;;;;;;5032118;28;20075;-81
2023/08/09 00:55:33;;;;;;;13.07;11.68;;;15.50;99.90;;;;;;5031923;28;20037;-81
2023/08/09 00:57:58;;;;;;;12.10;11.05;;;15.60;99.90;;;;;;5031569;28;20551;-82
2023/08/09 01:00:24;;;;;;;11.57;10.32;;;15.50;99.90;;;;;;5032222;28;20069;-81
2023/08/09 01:02:50;;;;;;;10.73;9.73;;;15.60;99.90;;;;;;5031851;28;20022;-81
2023/08/09 01:05:15;;;;;;;13.05;11.55;;;15.60;99.90;;;;;;5031828;28;20058;-82
2023/08/09 01:07:55;;;;;;;11.50;10.50;;;15.60;99.90;;;;;;5031671;28;20025;-82
2023/08/09 01:10:33;;;;;;;11.45;10.25;;;15.60;99.90;;;;;;5032176;28;20503;-82
2023/08/09 01:13:06;;;;;;;13.10;10.85;;;15.60;99.90;;;;;;5031308;28;20025;-81
2023/08/09 01:15:36;;;;;;;11.60;10.40;;;15.70;99.90;;;;;;5031866;28;20082;-82
2023/08/09 01:18:02;;;;;;;10.68;9.77;;;15.70;99.90;;;;;;5031895;28;20076;-82
2023/08/09 01:20:29;;;;;;;11.07;10.18;;;15.70;99.90;;;;;;5031322;28;20034;-82
2023/08/09 01:23:09;;;;;;;11.20;9.50;;;15.70;99.90;;;;;;5031835;28;20040;-82
2023/08/09 01:25:35;;;;;;;11.63;10.60;;;15.70;99.90;;;;;;5031638;28;20036;-82
2023/08/09 01:28:03;;;;;;;14.48;11.45;;;15.70;99.90;;;;;;5031188;28;20033;-82
2023/08/09 01:30:29;;;;;;;11.50;10.40;;;15.70;99.90;;;;;;5031673;28;20022;-81
2023/08/09 01:32:55;;;;;;;12.80;11.57;;;15.70;99.90;;;;;;5031174;28;20428;-82
2023/08/09 01:35:22;;;;;;;13.40;11.63;;;15.70;99.90;;;;;;5031684;28;20053;-82
2023/08/09 01:38:19;;;;;;;12.27;11.13;;;15.70;99.90;;;;;;5032397;28;20037;-82
2023/08/09 01:40:46;;;;;;;11.13;10.07;;;15.70;99.90;;;;;;5033785;28;20049;-82
2023/08/09 01:43:11;;;;;;;11.85;9.73;;;15.70;99.90;;;;;;5035668;28;20420;-82
2023/08/09 01:45:37;;;;;;;12.25;10.45;;;15.70;99.90;;;;;;5035411;28;20037;-81
2023/08/09 01:48:05;;;;;;;11.07;10.02;;;15.60;99.90;;;;;;5035031;28;20083;-82
2023/08/09 01:50:31;;;;;;;12.30;10.77;;;15.70;99.90;;;;;;5035481;28;20037;-82
2023/08/09 01:52:58;;;;;;;11.85;10.73;;;15.70;99.90;;;;;;5035289;28;20073;-82
2023/08/09 01:55:25;;;;;;;11.27;9.75;;;15.70;99.90;;;;;;5034858;28;20124;-82
2023/08/09 01:57:51;;;;;;;13.68;11.20;;;15.70;99.90;;;;;;5035353;28;20029;-81
2023/08/09 02:00:19;;;;;;;11.00;10.10;;;15.70;99.90;;;;;;5035600;28;20041;-82
2023/08/09 02:02:45;;;;;;;11.45;10.05;;;16.00;99.90;;;;;;5034287;28;20021;-81
2023/08/09 02:05:11;;;;;;;10.27;9.32;;;15.70;99.90;;;;;;5035453;28;20026;-81
2023/08/09 02:07:37;;;;;;;11.00;9.85;;;15.70;99.90;;;;;;5035191;28;20025;-81
2023/08/09 02:10:04;;;;;;;10.35;9.40;;;15.70;99.90;;;;;;5034436;28;20030;-81
2023/08/09 02:12:30;;;;;;;9.07;8.27;;;15.70;99.90;;;;;;5035216;28;20022;-82
2023/08/09 02:14:55;;;;;;;10.00;9.20;;;15.60;99.90;;;;;;5035328;28;20544;-82
2023/08/09 02:17:21;;;;;;;9.23;8.38;;;15.60;99.90;;;;;;5034474;28;20477;-82
2023/08/09 02:19:47;;;;;;;9.65;8.85;;;15.60;99.90;;;;;;5035000;28;20060;-82
2023/08/09 02:22:15;;;;;;;10.38;9.38;;;15.60;99.90;;;;;;5034365;28;20036;-81
2023/08/09 02:24:41;;;;;;;11.00;10.00;;;15.60;99.90;;;;;;5034723;28;20075;-82
2023/08/09 02:27:06;;;;;;;12.85;10.75;;;15.60;99.90;;;;;;5034924;28;20026;-82
2023/08/09 02:29:32;;;;;;;11.20;10.20;;;15.60;99.90;;;;;;5034258;28;20032;-82
2023/08/09 02:31:58;;;;;;;14.60;10.75;;;15.60;99.90;;;;;;5034801;28;20036;-82
2023/08/09 02:34:24;;;;;;;10.30;9.30;;;15.60;99.90;;;;;;5035075;28;20033;-82
2023/08/09 02:36:49;;;;;;;11.50;10.38;;;15.50;99.90;;;;;;5033937;28;20067;-81
2023/08/09 02:39:15;;;;;;;11.13;10.00;;;15.50;99.90;;;;;;5034574;28;20056;-81
2023/08/09 02:41:42;;;;;;;10.88;9.77;;;15.50;99.90;;;;;;5035015;28;20026;-81
2023/08/09 02:44:08;;;;;;;12.00;10.80;;;15.50;99.90;;;;;;5034494;28;20029;-82
2023/08/09 02:46:33;;;;;;;10.63;9.73;;;15.50;99.90;;;;;;5034991;28;20025;-82
2023/08/09 02:48:59;;;;;;;10.90;9.90;;;15.80;99.90;;;;;;5034413;28;20025;-82
2023/08/09 02:51:24;;;;;;;12.02;9.85;;;15.50;99.90;;;;;;5033909;28;20108;-82
2023/08/09 02:53:59;;;;;;;11.40;10.35;;;15.50;99.90;;;;;;5033995;28;20034;-82
2023/08/09 02:56:25;;;;;;;13.45;12.13;;;15.50;99.90;;;;;;5034616;28;20037;-81
2023/08/09 02:58:51;;;;;;;14.30;12.55;;;15.50;99.90;;;;;;5033597;28;20133;-81
2023/08/09 03:01:17;;;;;;;12.93;11.73;;;15.50;99.90;;;;;;5034463;28;20124;-81
2023/08/09 03:03:42;;;;;;;12.85;11.55;;;15.50;99.90;;;;;;5034187;28;20029;-82
2023/08/09 03:06:08;;;;;;;16.58;13.50;;;15.50;99.90;;;;;;5033506;28;20044;-81
2023/08/09 03:08:33;;;;;;;13.77;12.40;;;15.50;99.90;;;;;;5034130;28;20077;-81
2023/08/09 03:10:59;;;;;;;13.75;12.30;;;15.60;99.90;;;;;;5034269;28;20025;-81
2023/08/09 03:13:25;;;;;;;14.30;12.85;;;15.50;99.90;;;;;;5033718;28;20124;-81
2023/08/09 03:15:50;;;;;;;17.23;14.45;;;15.50;99.90;;;;;;5033795;28;20351;-81
2023/08/09 03:18:16;;;;;;;15.60;13.88;;;15.50;99.90;;;;;;5034676;28;20151;-81
2023/08/09 03:20:41;;;;;;;15.25;13.77;;;15.50;99.90;;;;;;5033077;28;20481;-81
2023/08/09 03:23:09;;;;;;;16.50;13.88;;;15.50;99.90;;;;;;5033976;28;20072;-81
2023/08/09 03:25:36;;;;;;;18.23;15.90;;;15.50;99.90;;;;;;5033437;28;20028;-82
2023/08/09 03:28:02;;;;;;;20.52;16.13;;;15.50;99.90;;;;;;5034085;28;20036;-82
2023/08/09 03:30:28;;;;;;;19.13;16.48;;;15.50;99.90;;;;;;5034008;28;20026;-82
2023/08/09 03:32:53;;;;;;;21.55;17.23;;;15.50;99.90;;;;;;5033121;28;20105;-81
2023/08/09 03:35:19;;;;;;;23.83;17.45;;;15.40;99.90;;;;;;5033538;28;20041;-81
2023/08/09 03:37:45;;;;;;;20.50;17.50;;;15.40;99.90;;;;;;5033299;28;20473;-81
2023/08/09 03:40:12;;;;;;;22.35;17.52;;;15.40;99.90;;;;;;5033039;28;20094;-81
2023/08/09 03:42:40;;;;;;;23.08;18.38;;;15.40;99.90;;;;;;5033455;28;20021;-82
2023/08/09 03:45:06;;;;;;;24.70;18.92;;;15.30;99.90;;;;;;5033632;28;20034;-82
2023/08/09 03:47:32;;;;;;;22.48;18.20;;;15.30;99.90;;;;;;5032680;28;20040;-82
2023/08/09 03:49:58;;;;;;;23.55;17.83;;;15.30;99.90;;;;;;5033301;28;20021;-81
2023/08/09 03:52:23;;;;;;;24.00;18.75;;;15.30;99.90;;;;;;5033620;28;20033;-82
2023/08/09 03:54:52;;;;;;;24.38;18.55;;;15.30;99.90;;;;;;5032488;28;20404;-82
2023/08/09 03:57:18;;;;;;;27.88;19.17;;;15.40;99.90;;;;;;5033446;28;20026;-82
2023/08/09 03:59:45;;;;;;;21.67;18.30;;;15.30;99.90;;;;;;5032976;28;20029;-82
2023/08/09 04:02:11;;;;;;;23.25;19.35;;;15.30;99.90;;;;;;5031909;28;20048;-82
2023/08/09 04:04:37;;;;;;;23.90;18.38;;;15.40;99.90;;;;;;5032725;28;20029;-81
2023/08/09 04:07:04;;;;;;;25.10;19.02;;;15.30;99.90;;;;;;5033257;28;20026;-82
2023/08/09 04:09:30;;;;;;;23.60;18.85;;;15.30;99.90;;;;;;5032422;28;20025;-81
2023/08/09 04:11:56;;;;;;;28.95;18.85;;;15.30;99.90;;;;;;5032684;28;20431;-82
2023/08/09 04:14:21;;;;;;;25.13;18.70;;;15.30;99.90;;;;;;5032990;28;20053;-81
2023/08/09 04:16:47;;;;;;;24.13;19.77;;;15.30;99.90;;;;;;5032160;28;20382;-81
2023/08/09 04:19:13;;;;;;;25.65;18.85;;;15.30;99.90;;;;;;5032712;28;20022;-81
2023/08/09 04:21:40;;;;;;;23.90;18.95;;;15.30;99.90;;;;;;5032178;28;20049;-82
2023/08/09 04:24:06;;;;;;;25.00;18.38;;;15.30;99.90;;;;;;5032783;28;20372;-82
2023/08/09 04:26:31;;;;;;;27.33;19.50;;;15.20;99.90;;;;;;5032548;28;20116;-81
2023/08/09 04:28:57;;;;;;;26.00;19.45;;;15.20;99.90;;;;;;5031673;28;20521;-81
2023/08/09 04:31:22;;;;;;;22.88;18.55;;;15.20;99.90;;;;;;5032582;28;20396;-81
2023/08/09 04:33:49;;;;;;;22.40;18.10;;;15.20;99.90;;;;;;5032228;28;20029;-81
2023/08/09 04:36:18;;;;;;;29.25;19.90;;;15.20;99.90;;;;;;5031792;28;20069;-81
2023/08/09 04:38:44;;;;;;;25.48;19.10;;;15.20;99.90;;;;;;5032418;28;20037;-81
2023/08/09 04:41:10;;;;;;;23.92;19.25;;;15.20;99.90;;;;;;5032584;28;20064;-81
2023/08/09 04:43:39;;;;;;;24.38;19.23;;;15.20;99.90;;;;;;5031584;28;20488;-82
2023/08/09 04:46:05;;;;;;;23.75;18.65;;;15.70;99.90;;;;;;5032368;28;20029;-81
2023/08/09 04:48:30;;;;;;;20.95;17.45;;;15.50;99.90;;;;;;5032021;28;20029;-81
2023/08/09 04:50:56;;;;;;;20.58;17.63;;;15.20;99.90;;;;;;5031484;28;20022;-81
2023/08/09 04:53:22;;;;;;;26.98;18.05;;;15.20;99.90;;;;;;5032509;28;20029;-81
2023/08/09 04:55:47;;;;;;;21.35;17.20;;;15.20;99.90;;;;;;5031874;28;20443;-81
2023/08/09 04:58:13;;;;;;;19.50;16.75;;;15.20;99.90;;;;;;5031692;28;20022;-81
2023/08/09 05:00:39;;;;;;;19.85;16.45;;;15.20;99.90;;;;;;5032136;28;20044;-81
2023/08/09 05:03:05;;;;;;;23.17;17.38;;;15.30;99.90;;;;;;5032035;28;20505;-81
2023/08/09 05:05:31;;;;;;;18.15;15.30;;;15.30;99.90;;;;;;5031296;28;20033;-82
2023/08/09 05:07:57;;;;;;;17.90;15.93;;;15.30;99.90;;;;;;5032288;28;20028;-80
2023/08/09 05:10:23;;;;;;;19.33;15.80;;;15.30;99.90;;;;;;5032196;28;20033;-80
2023/08/09 05:12:48;;;;;;;18.88;15.05;;;15.30;99.90;;;;;;5030915;28;20029;-81
2023/08/09 05:15:14;;;;;;;20.65;16.15;;;15.40;99.90;;;;;;5032073;28;20030;-80
2023/08/09 05:17:40;;;;;;;19.40;15.27;;;15.40;99.90;;;;;;5031959;28;20033;-80
2023/08/09 05:20:07;;;;;;;17.73;15.45;;;15.50;99.90;;;;;;5031169;28;20123;-80
2023/08/09 05:22:33;;;;;;;17.98;15.45;;;15.50;99.90;;;;;;5031548;28;20117;-81
2023/08/09 05:24:59;;;;;;;16.52;14.77;;;15.50;99.90;;;;;;5031043;28;20389;-83
2023/08/09 05:27:25;;;;;;;17.08;14.75;;;15.50;99.90;;;;;;5031685;28;20104;-81
2023/08/09 05:29:50;;;;;;;19.63;15.48;;;15.50;99.90;;;;;;5031391;28;20091;-80
2023/08/09 05:32:16;;;;;;;18.70;14.23;;;15.50;99.90;;;;;;5030996;28;20025;-80
2023/08/09 05:34:42;;;;;;;16.92;15.13;;;15.60;99.90;;;;;;5031320;28;20128;-80
2023/08/09 05:37:07;;;;;;;17.80;14.70;;;15.60;99.90;;;;;;5031646;28;20029;-81
2023/08/09 05:39:33;;;;;;;14.70;13.02;;;15.60;99.90;;;;;;5030662;28;20422;-82
2023/08/09 05:41:59;;;;;;;15.52;13.85;;;15.60;99.90;;;;;;5032279;28;20065;-83
2023/08/09 05:44:25;;;;;;;15.38;13.38;;;15.70;99.90;;;;;;5031756;28;20381;-82
2023/08/09 05:46:51;;;;;;;17.75;13.18;;;15.70;99.90;;;;;;5030565;28;20030;-82
2023/08/09 05:49:16;;;;;;;17.23;13.65;;;15.60;99.90;;;;;;5031581;28;20024;-82
2023/08/09 05:51:42;;;;;;;15.38;13.77;;;15.70;99.90;;;;;;5031428;28;20033;-82
2023/08/09 05:54:08;;;;;;;18.75;14.75;;;15.70;99.90;;;;;;5030957;28;20076;-82
2023/08/09 05:56:34;;;;;;;18.00;14.25;;;15.60;99.90;;;;;;5031477;28;20030;-82
2023/08/09 05:59:00;;;;;;;18.45;15.52;;;15.70;99.90;;;;;;5031411;28;20021;-82
2023/08/09 06:01:25;;;;;;;16.65;13.70;;;15.70;99.90;;;;;;5030596;28;20045;-82
2023/08/09 06:03:51;;;;;;;24.27;16.48;;;15.70;99.90;;;;;;5031013;28;20029;-82
2023/08/09 06:06:16;;;;;;;20.38;15.00;;;16.30;99.90;;;;;;5031607;28;20087;-82
2023/08/09 06:08:42;;;;;;;20.05;15.45;;;15.70;99.90;;;;;;5030293;28;20025;-80
2023/08/09 06:11:08;;;;;;;16.80;15.10;;;15.60;99.90;;;;;;5032040;28;20079;-83
2023/08/09 06:13:34;;;;;;;18.55;15.88;;;15.60;99.90;;;;;;5031248;28;20030;-82
2023/08/09 06:16:00;;;;;;;18.60;15.13;;;15.60;99.90;;;;;;5030848;28;20036;-82
2023/08/09 06:18:26;;;;;;;20.27;15.05;;;15.60;99.90;;;;;;5031905;28;20033;-82
2023/08/09 06:20:54;;;;;;;18.20;15.43;;;15.70;99.90;;;;;;5030759;28;20041;-82
2023/08/09 06:23:20;;;;;;;15.90;13.25;;;15.90;99.90;;;;;;5030868;28;20481;-82
2023/08/09 06:25:47;;;;;;;21.63;14.65;;;15.70;99.90;;;;;;5034532;28;20079;-82
2023/08/09 06:28:13;;;;;;;16.15;14.05;;;15.70;99.90;;;;;;5034681;28;20083;-82
2023/08/09 06:30:39;;;;;;;19.10;14.80;;;15.80;99.90;;;;;;5034114;28;20448;-81
2023/08/09 06:33:05;;;;;;;17.63;13.68;;;15.80;99.90;;;;;;5034675;28;20025;-81
2023/08/09 06:35:31;;;;;;;16.83;12.70;;;15.80;99.90;;;;;;5033543;28;20144;-80
2023/08/09 06:37:56;;;;;;;17.05;13.55;;;15.90;99.90;;;;;;5034696;28;20392;-80
2023/08/09 06:40:22;;;;;;;18.38;13.40;;;15.90;99.90;;;;;;5034761;28;20034;-79
2023/08/09 06:42:48;;;;;;;15.55;12.15;;;15.90;99.90;;;;;;5033373;28;20021;-80
2023/08/09 06:45:13;;;;;;;14.27;11.45;;;15.90;99.90;;;;;;5034391;28;20029;-80
2023/08/09 06:47:39;;;;;;;13.05;11.25;;;16.40;99.90;;;;;;5034226;28;20064;-82
2023/08/09 06:50:06;;;;;;;13.90;11.90;;;16.00;99.90;;;;;;5033605;28;20473;-82
2023/08/09 06:52:36;;;;;;;11.75;10.00;;;16.10;99.90;;;;;;5034005;28;20033;-81
2023/08/09 06:55:07;;;;;;;13.48;11.30;;;16.10;99.90;;;;;;5034764;28;20021;-81
2023/08/09 06:57:32;;;;;;;11.32;10.13;;;16.10;99.90;;;;;;5033690;28;20029;-82
2023/08/09 06:59:59;;;;;;;12.38;10.57;;;16.10;99.90;;;;;;5034268;28;20095;-82
2023/08/09 07:02:26;;;;;;;11.10;9.98;;;16.20;99.90;;;;;;5034390;28;20021;-82
2023/08/09 07:04:53;;;;;;;9.55;8.43;;;16.20;99.90;;;;;;5033007;28;20033;-81
2023/08/09 07:07:22;;;;;;;9.55;8.55;;;16.20;99.90;;;;;;5034180;28;20071;-81
2023/08/09 07:09:49;;;;;;;8.57;7.68;;;16.20;99.90;;;;;;5033735;28;20354;-82
2023/08/09 07:12:14;;;;;;;7.32;6.63;;;16.30;99.90;;;;;;5033362;28;20025;-80
2023/08/09 07:14:40;;;;;;;8.02;6.57;;;16.30;99.90;;;;;;5033882;28;20026;-80
2023/08/09 07:17:06;;;;;;;8.90;7.20;;;16.30;99.90;;;;;;5034276;28;20026;-82
2023/08/09 07:19:32;;;;;;;6.90;6.30;;;16.70;99.90;;;;;;5033015;28;20033;-81
2023/08/09 07:21:57;;;;;;;9.80;6.50;;;16.50;99.90;;;;;;5033636;28;20025;-81
2023/08/09 07:24:23;;;;;;;7.68;6.88;;;16.50;99.90;;;;;;5033958;28;20073;-82
2023/08/09 07:26:48;;;;;;;6.72;6.03;;;16.50;99.90;;;;;;5032693;28;20029;-81
2023/08/09 07:29:14;;;;;;;8.13;6.57;;;16.50;99.90;;;;;;5033849;28;20029;-81
2023/08/09 07:31:40;;;;;;;9.07;5.72;;;16.60;99.90;;;;;;5032607;28;20064;-81
2023/08/09 07:34:06;;;;;;;6.35;5.47;;;16.60;99.90;;;;;;5033653;28;20555;-81
2023/08/09 07:36:31;;;;;;;9.38;5.00;;;16.60;99.90;;;;;;5031244;28;20090;-81
2023/08/09 07:38:58;;;;;;;5.78;4.70;;;16.80;99.90;;;;;;5031609;28;20477;-81
2023/08/09 07:41:24;;;;;;;5.18;3.90;;;16.70;99.90;;;;;;5032381;28;20033;-81
2023/08/09 07:43:50;;;;;;;4.22;3.75;;;16.70;99.90;;;;;;5032116;28;20044;-81
2023/08/09 07:46:15;;;;;;;7.78;4.90;;;16.70;99.90;;;;;;5032052;28;20075;-81
2023/08/09 07:48:41;;;;;;;6.53;4.90;;;16.80;99.90;;;;;;5032165;28;20018;-81
2023/08/09 07:51:11;;;;;;;4.38;4.03;;;17.00;99.90;;;;;;5032375;28;20032;-81
2023/08/09 07:53:40;;;;;;;8.93;3.92;;;16.90;99.90;;;;;;5031269;28;20049;-80
2023/08/09 07:56:05;;;;;;;5.00;3.28;;;16.90;99.90;;;;;;5032332;28;20026;-81
2023/08/09 07:58:31;;;;;;;4.57;3.63;;;16.90;99.90;;;;;;5032278;28;20456;-81
2023/08/09 08:00:58;;;;;;;6.90;4.20;;;16.90;99.90;;;;;;5031344;28;20528;-81
2023/08/09 08:03:23;;;;;;;5.03;4.28;;;17.10;99.90;;;;;;5032370;28;20030;-81
2023/08/09 08:05:49;;;;;;;6.57;3.33;;;17.00;99.90;;;;;;5031700;28;20412;-81
2023/08/09 08:08:17;;;;;;;6.22;3.88;;;17.00;99.90;;;;;;5031332;28;20037;-81
2023/08/09 08:10:43;;;;;;;3.30;3.00;;;17.10;99.90;;;;;;5032096;28;20056;-81
2023/08/09 08:13:09;;;;;;;4.35;3.05;;;17.10;99.90;;;;;;5032253;28;20045;-81
2023/08/09 08:15:36;;;;;;;3.67;3.38;;;17.00;99.90;;;;;;5031005;28;20468;-81
2023/08/09 08:18:03;;;;;;;4.70;3.80;;;17.00;99.90;;;;;;5031972;28;20140;-81
2023/08/09 08:20:29;;;;;;;3.83;3.47;;;17.10;99.90;;;;;;5031899;28;20037;-81
2023/08/09 08:22:55;;;;;;;3.75;3.35;;;17.20;99.90;;;;;;5030893;28;20164;-81
2023/08/09 08:25:20;;;;;;;9.65;3.35;;;17.20;99.90;;;;;;5031765;28;20067;-81
2023/08/09 08:27:46;;;;;;;4.00;3.55;;;17.30;99.90;;;;;;5031699;28;20049;-81
2023/08/09 08:30:14;;;;;;;8.20;3.10;;;17.80;99.90;;;;;;5031399;28;20265;-81
2023/08/09 08:32:39;;;;;;;3.38;2.63;;;17.40;99.90;;;;;;5032208;28;20104;-81
2023/08/09 08:35:10;;;;;;;6.45;4.18;;;17.40;99.90;;;;;;4994503;28;1049018;-81
2023/08/09 08:37:36;;;;;;;5.05;3.13;;;17.30;99.90;;;;;;5032228;28;20033;-81
2023/08/09 08:40:06;;;;;;;6.25;3.28;;;17.40;99.90;;;;;;5032247;28;20546;-81
2023/08/09 08:42:32;;;;;;;3.30;2.50;;;17.40;99.90;;;;;;5031564;28;20124;-81
2023/08/09 08:44:58;;;;;;;2.88;2.67;;;17.50;99.90;;;;;;5032214;28;20029;-81
2023/08/09 08:47:25;;;;;;;4.22;2.72;;;17.40;99.90;;;;;;5032544;28;20022;-81
2023/08/09 08:49:53;;;;;;;5.47;2.95;;;17.40;99.90;;;;;;5030940;28;20053;-81
2023/08/09 08:52:20;;;;;;;6.28;3.58;;;17.50;99.90;;;;;;5032403;28;20033;-81
2023/08/09 08:54:45;;;;;;;4.43;2.75;;;17.60;99.90;;;;;;5031804;28;20083;-81
2023/08/09 08:57:12;;;;;;;5.95;2.92;;;17.60;99.90;;;;;;5031498;28;20037;-81
2023/08/09 08:59:39;;;;;;;4.70;2.95;;;17.60;99.90;;;;;;5031729;28;20041;-81
2023/08/09 09:02:04;;;;;;;7.05;2.78;;;17.60;99.90;;;;;;5031945;28;20037;-81
2023/08/09 09:04:30;;;;;;;2.63;2.42;;;17.70;99.90;;;;;;5031248;28;20437;-81
2023/08/09 09:06:56;;;;;;;2.72;2.00;;;17.70;99.90;;;;;;5031633;28;20025;-81
2023/08/09 09:09:21;;;;;;;2.42;2.22;;;17.80;99.90;;;;;;5032307;28;20029;-81
2023/08/09 09:11:47;;;;;;;3.20;2.22;;;17.80;99.90;;;;;;5030958;28;20060;-81
2023/08/09 09:14:15;;;;;;;7.22;2.65;;;17.80;99.90;;;;;;5031988;28;20109;-81
2023/08/09 09:16:44;;;;;;;5.93;2.40;;;17.80;99.90;;;;;;5031594;28;20022;-81
2023/08/09 09:19:11;;;;;;;3.67;2.40;;;17.90;99.90;;;;;;5030974;28;20021;-82
2023/08/09 09:21:36;;;;;;;4.90;2.70;;;18.00;99.90;;;;;;5031647;28;20035;-81
2023/08/09 09:24:07;;;;;;;7.90;3.88;;;18.00;99.90;;;;;;5031642;28;20044;-81
2023/08/09 09:26:34;;;;;;;3.42;2.90;;;18.00;99.90;;;;;;5031657;28;20033;-81
2023/08/09 09:29:00;;;;;;;3.42;2.95;;;18.20;99.90;;;;;;5031829;28;20021;-83
2023/08/09 09:31:39;;;;;;;4.50;2.70;;;18.00;99.90;;;;;;5031081;28;20096;-80
2023/08/09 09:34:07;;;;;;;4.78;2.50;;;18.00;99.90;;;;;;5031826;28;20112;-83
2023/08/09 09:36:37;;;;;;;5.90;3.47;;;18.60;99.90;;;;;;5031354;28;20052;-82
2023/08/09 09:39:10;;;;;;;5.72;3.28;;;18.10;99.90;;;;;;5031270;28;20032;-82
2023/08/09 09:41:46;;;;;;;7.13;3.53;;;18.10;99.90;;;;;;5031515;28;20071;-82
2023/08/09 09:44:17;;;;;;;4.18;2.83;;;18.20;99.90;;;;;;5031710;28;20025;-82
2023/08/09 09:46:42;;;;;;;4.50;2.90;;;18.20;99.90;;;;;;5030928;28;20033;-83
2023/08/09 09:49:08;;;;;;;3.55;2.97;;;18.50;99.90;;;;;;5031535;28;20184;-83
2023/08/09 09:51:35;;;;;;;4.60;2.97;;;18.20;99.90;;;;;;5031500;28;20021;-81
2023/08/09 09:54:01;;;;;;;3.10;2.75;;;18.10;99.90;;;;;;5030961;28;20354;-80
2023/08/09 09:56:27;;;;;;;4.93;3.13;;;18.30;99.90;;;;;;5031674;28;20033;-81
2023/08/09 09:58:52;;;;;;;2.72;2.53;;;18.00;99.90;;;;;;5032400;28;20041;-83
2023/08/09 10:01:25;;;;;;;3.75;3.25;;;18.70;99.90;;;;;;5034689;28;20044;-83
2023/08/09 10:04:06;;;;;;;3.83;3.20;;;18.00;99.90;;;;;;5035187;28;20659;-83
2023/08/09 10:06:39;;;;;;;6.07;3.03;;;18.20;99.90;;;;;;5034469;28;20026;-81
2023/08/09 10:09:07;;;;;;;2.95;2.30;;;18.20;99.90;;;;;;5035266;28;20080;-81
2023/08/09 10:11:34;;;;;;;2.60;2.13;;;18.20;99.90;;;;;;5035138;28;20026;-81
2023/08/09 10:14:04;;;;;;;6.10;3.25;;;18.40;99.90;;;;;;5034722;28;20033;-81
2023/08/09 10:16:32;;;;;;;3.07;2.27;;;18.50;99.90;;;;;;5034956;28;20417;-81
2023/08/09 10:19:07;;;;;;;3.63;2.15;;;18.50;99.90;;;;;;5034767;28;20377;-81
2023/08/09 10:21:32;;;;;;;3.92;2.20;;;18.50;99.90;;;;;;5033993;28;20037;-81
2023/08/09 10:24:17;;;;;;;2.30;1.65;;;18.50;99.90;;;;;;5034823;28;20022;-81
2023/08/09 10:26:46;;;;;;;5.57;1.88;;;18.60;99.90;;;;;;5034731;28;20109;-81
2023/08/09 10:29:23;;;;;;;9.48;2.00;;;18.60;99.90;;;;;;5034400;28;20049;-81
2023/08/09 10:31:57;;;;;;;3.08;1.63;;;18.60;99.90;;;;;;5034480;28;20038;-80
2023/08/09 10:34:37;;;;;;;4.47;1.70;;;18.60;99.90;;;;;;5034405;28;20021;-81
2023/08/09 10:37:04;;;;;;;3.53;2.00;;;18.50;99.90;;;;;;5034934;28;20092;-81
2023/08/09 10:39:31;;;;;;;6.20;2.20;;;18.60;99.90;;;;;;5034295;28;20377;-83
2023/08/09 10:42:00;;;;;;;9.43;1.73;;;18.50;99.90;;;;;;5034043;28;20033;-80
2023/08/09 10:44:34;;;;;;;8.75;1.67;;;18.60;99.90;;;;;;5034564;28;20036;-82
2023/08/09 10:47:25;;;;;;;10.82;1.85;;;18.60;99.90;;;;;;5034485;28;20462;-82
2023/08/09 10:49:53;;;;;;;13.27;2.25;;;18.60;99.90;;;;;;5034002;28;20033;-83
2023/08/09 10:52:18;;;;;;;6.60;2.13;;;18.60;99.90;;;;;;5034347;28;20484;-82
2023/08/09 10:54:46;;;;;;;9.20;2.97;;;18.60;99.90;;;;;;5033940;28;20026;-82
2023/08/09 10:57:12;;;;;;;6.70;1.75;;;18.60;99.90;;;;;;5033562;28;20033;-80
2023/08/09 10:59:39;;;;;;;6.30;1.95;;;18.60;99.90;;;;;;5033770;28;20033;-83
2023/08/09 11:02:06;;;;;;;3.40;1.83;;;18.70;99.90;;;;;;5034308;28;20071;-83
2023/08/09 11:04:32;;;;;;;3.67;1.98;;;18.70;99.90;;;;;;5033505;28;20025;-83
2023/08/09 11:06:58;;;;;;;14.27;2.42;;;19.10;99.90;;;;;;5034232;28;20029;-82
2023/08/09 11:09:26;;;;;;;3.38;1.67;;;19.50;99.90;;;;;;5034092;28;20499;-82
2023/08/09 11:11:53;;;;;;;4.10;1.48;;;18.80;99.90;;;;;;5033163;28;20033;-82
2023/08/09 11:14:22;;;;;;;5.00;1.50;;;18.90;99.90;;;;;;5034096;28;20485;-82
2023/08/09 11:16:50;;;;;;;5.90;2.63;;;18.90;99.90;;;;;;5033092;28;20022;-82
2023/08/09 11:19:20;;;;;;;3.10;1.30;;;18.90;99.90;;;;;;5034093;28;20026;-82
2023/08/09 11:21:52;;;;;;;5.00;1.38;;;18.90;99.90;;;;;;5033556;28;20063;-82
2023/08/09 11:24:20;;;;;;;2.40;1.30;;;18.80;99.90;;;;;;5033154;28;20370;-82
2023/08/09 11:26:52;;;;;;;5.85;1.40;;;19.00;99.90;;;;;;5033674;28;20381;-82
2023/08/09 11:29:19;;;;;;;2.30;1.17;;;19.00;99.90;;;;;;5034261;28;20119;-83
2023/08/09 11:31:48;;;;;;;2.88;1.20;;;19.00;99.90;;;;;;5032684;28;20104;-83
2023/08/09 11:34:16;;;;;;;12.90;2.13;;;19.10;99.90;;;;;;5033694;28;20030;-82
2023/08/09 11:36:43;;;;;;;4.65;1.40;;;19.10;99.90;;;;;;5033280;28;20029;-82
2023/08/09 11:39:10;;;;;;;5.88;1.80;;;19.10;99.90;;;;;;5032827;28;20032;-82
2023/08/09 11:41:40;;;;;;;3.55;1.42;;;19.40;99.90;;;;;;5033092;28;20033;-82
2023/08/09 11:44:06;;;;;;;2.47;1.17;;;19.20;99.90;;;;;;5033639;28;20025;-82
2023/08/09 11:46:32;;;;;;;4.38;1.45;;;19.10;99.90;;;;;;5032567;28;20026;-82
2023/08/09 11:49:03;;;;;;;2.97;1.60;;;19.10;99.90;;;;;;5033169;28;20048;-81
2023/08/09 11:51:32;;;;;;;8.15;1.20;;;19.10;99.90;;;;;;5033093;28;20029;-82
2023/08/09 11:53:58;;;;;;;1.77;1.20;;;19.50;99.90;;;;;;5032472;28;20389;-82
2023/08/09 11:56:24;;;;;;;3.75;1.42;;;19.00;99.90;;;;;;5033317;28;20021;-83
2023/08/09 11:58:52;;;;;;;2.50;1.38;;;19.10;99.90;;;;;;5032370;28;20476;-82
2023/08/09 12:01:22;;;;;;;7.47;1.58;;;19.20;99.90;;;;;;5033225;28;20116;-82
2023/08/09 12:03:49;;;;;;;;;;;19.30;99.90;;;;;;5033107;28;20025;-81
2023/08/09 12:06:16;;;;;;;3.63;1.60;;;19.20;99.90;;;;;;5032655;28;19927;-82
2023/08/09 12:08:42;;;;;;;3.70;1.38;;;19.30;99.90;;;;;;5032763;28;20136;-81
2023/08/09 12:11:08;;;;;;;2.92;1.30;;;19.30;99.90;;;;;;5033060;28;20504;-82
2023/08/09 12:13:33;;;;;;;4.57;1.20;;;19.30;99.90;;;;;;5032070;28;20064;-81
2023/08/09 12:16:06;;;;;;;2.45;1.27;;;19.30;99.90;;;;;;5032815;28;20372;-81
2023/08/09 12:18:39;;;;;;;3.33;1.45;;;19.90;99.90;;;;;;5032567;28;20393;-82
2023/08/09 12:21:07;;;;;;;2.95;0.95;;;19.20;99.90;;;;;;5031602;28;20042;-82
2023/08/09 12:23:35;;;;;;;3.75;1.02;;;19.30;99.90;;;;;;5032381;28;20037;-82
2023/08/09 12:26:01;;;;;;;6.70;1.50;;;19.40;99.90;;;;;;5032747;28;20112;-81
2023/08/09 12:28:27;;;;;;;3.58;1.65;;;19.40;99.90;;;;;;5031842;28;20443;-82
2023/08/09 12:30:52;;;;;;;5.32;1.20;;;19.40;99.90;;;;;;5032025;28;20040;-82
2023/08/09 12:33:18;;;;;;;2.92;1.30;;;19.70;99.90;;;;;;5032365;28;20017;-82
2023/08/09 12:35:44;;;;;;;2.92;1.40;;;19.40;99.90;;;;;;5031231;28;20077;-81
2023/08/09 12:38:10;;;;;;;5.50;1.17;;;19.40;99.90;;;;;;5032549;28;20025;-82